首页
METAR-TAF:

METAR-TAF

机场 :

Clintonville, 威斯康辛州, 美国

纬度: 44-36-50N, 经度: 088-43-53W, 海拔: 251米

当前天气观测

该预报发布于21分钟前的14:55 UTC
风速6节,风向西南
温度 21°C
湿度 94%
气压 1009 hPa
能見度: 8.0公里
多云层高于1000英尺
多云层高于2100英尺
阴天层高于3900英尺
小雨

METAR: KCLI 221455Z AUTO 22006KT 5SM -RA BKN010 BKN021 OVC039 21/20 A2980 RMK AO2 P0002 60007 T02090198

时间: 10:16 (15:16 UTC)


TAF: 丢失

超过4000个机场的气象观测和天气预报(METAR&TAF报告)。

可查询的气象台以黄色和红色小点在地图上表示。

将鼠标移到小点上方,可查看气象台名称。

然后点击查看天气观测和预报。

如需切换地图:点击带黑十字的绿色按钮放大地图;点击带横线的绿色按钮缩小地图;或者点击绿色箭头查看邻近地区的地图。


METAR-TAF: